sensor_id;sensor_type;location;lat;lon;timestamp;P1;durP1;ratioP1;P2;durP2;ratioP2
9771;SDS011;4925;52.588;13.370;2022-12-18T00:01:18;33.47;;;13.47;;
9771;SDS011;4925;52.588;13.370;2022-12-18T00:03:46;31.67;;;13.87;;
9771;SDS011;4925;52.588;13.370;2022-12-18T00:06:12;35.80;;;15.73;;
9771;SDS011;4925;52.588;13.370;2022-12-18T00:08:40;31.23;;;15.00;;
9771;SDS011;4925;52.588;13.370;2022-12-18T00:11:06;35.00;;;14.23;;
9771;SDS011;4925;52.588;13.370;2022-12-18T00:13:34;31.87;;;15.63;;
9771;SDS011;4925;52.588;13.370;2022-12-18T00:16:03;28.90;;;13.03;;
9771;SDS011;4925;52.588;13.370;2022-12-18T00:18:30;31.20;;;14.37;;
9771;SDS011;4925;52.588;13.370;2022-12-18T00:21:03;38.33;;;16.53;;
9771;SDS011;4925;52.588;13.370;2022-12-18T00:23:31;28.10;;;12.53;;
9771;SDS011;4925;52.588;13.370;2022-12-18T00:26:02;26.23;;;12.10;;
9771;SDS011;4925;52.588;13.370;2022-12-18T00:28:30;26.03;;;10.30;;
9771;SDS011;4925;52.588;13.370;2022-12-18T00:31:02;28.17;;;12.67;;
9771;SDS011;4925;52.588;13.370;2022-12-18T00:33:39;30.87;;;13.57;;
9771;SDS011;4925;52.588;13.370;2022-12-18T00:36:06;27.20;;;13.03;;
9771;SDS011;4925;52.588;13.370;2022-12-18T00:38:34;27.10;;;13.10;;
9771;SDS011;4925;52.588;13.370;2022-12-18T00:41:00;23.67;;;12.40;;
9771;SDS011;4925;52.588;13.370;2022-12-18T00:43:26;30.50;;;13.37;;
9771;SDS011;4925;52.588;13.370;2022-12-18T00:45:52;29.93;;;13.63;;
9771;SDS011;4925;52.588;13.370;2022-12-18T00:48:18;31.80;;;14.20;;
9771;SDS011;4925;52.588;13.370;2022-12-18T00:50:44;27.27;;;13.43;;
9771;SDS011;4925;52.588;13.370;2022-12-18T00:53:10;33.50;;;14.77;;
9771;SDS011;4925;52.588;13.370;2022-12-18T00:55:39;33.13;;;12.60;;
9771;SDS011;4925;52.588;13.370;2022-12-18T00:58:06;30.73;;;13.03;;
9771;SDS011;4925;52.588;13.370;2022-12-18T01:00:32;33.97;;;14.77;;
9771;SDS011;4925;52.588;13.370;2022-12-18T01:02:58;32.07;;;13.63;;
9771;SDS011;4925;52.588;13.370;2022-12-18T01:05:24;30.53;;;13.40;;
9771;SDS011;4925;52.588;13.370;2022-12-18T01:07:50;29.03;;;13.80;;
9771;SDS011;4925;52.588;13.370;2022-12-18T01:10:16;29.47;;;12.87;;
9771;SDS011;4925;52.588;13.370;2022-12-18T01:12:42;25.83;;;12.33;;
9771;SDS011;4925;52.588;13.370;2022-12-18T01:15:09;29.03;;;13.70;;
9771;SDS011;4925;52.588;13.370;2022-12-18T01:17:36;30.20;;;12.60;;
9771;SDS011;4925;52.588;13.370;2022-12-18T01:20:02;34.10;;;13.30;;
9771;SDS011;4925;52.588;13.370;2022-12-18T01:22:28;30.10;;;14.17;;
9771;SDS011;4925;52.588;13.370;2022-12-18T01:24:54;28.93;;;14.83;;
9771;SDS011;4925;52.588;13.370;2022-12-18T01:27:20;35.73;;;14.50;;
9771;SDS011;4925;52.588;13.370;2022-12-18T01:29:46;31.33;;;14.27;;
9771;SDS011;4925;52.588;13.370;2022-12-18T01:32:11;31.07;;;14.30;;
9771;SDS011;4925;52.588;13.370;2022-12-18T01:34:37;30.93;;;14.20;;
9771;SDS011;4925;52.588;13.370;2022-12-18T01:37:03;31.63;;;13.50;;
9771;SDS011;4925;52.588;13.370;2022-12-18T01:39:29;35.37;;;14.83;;
9771;SDS011;4925;52.588;13.370;2022-12-18T01:41:57;30.60;;;13.67;;
9771;SDS011;4925;52.588;13.370;2022-12-18T01:50:10;27.87;;;12.60;;
9771;SDS011;4925;52.588;13.370;2022-12-18T01:53:02;31.87;;;12.20;;
9771;SDS011;4925;52.588;13.370;2022-12-18T01:55:35;33.03;;;13.20;;
9771;SDS011;4925;52.588;13.370;2022-12-18T01:58:07;30.00;;;13.40;;
9771;SDS011;4925;52.588;13.370;2022-12-18T02:00:32;26.67;;;11.73;;
9771;SDS011;4925;52.588;13.370;2022-12-18T02:02:58;29.00;;;12.77;;
9771;SDS011;4925;52.588;13.370;2022-12-18T02:08:09;34.50;;;14.83;;
9771;SDS011;4925;52.588;13.370;2022-12-18T02:10:44;29.70;;;13.43;;
9771;SDS011;4925;52.588;13.370;2022-12-18T02:13:28;33.10;;;13.60;;
9771;SDS011;4925;52.588;13.370;2022-12-18T02:16:14;27.70;;;11.73;;
9771;SDS011;4925;52.588;13.370;2022-12-18T02:18:47;25.13;;;10.77;;
9771;SDS011;4925;52.588;13.370;2022-12-18T02:21:28;30.60;;;12.33;;
9771;SDS011;4925;52.588;13.370;2022-12-18T02:26:34;25.93;;;11.70;;
9771;SDS011;4925;52.588;13.370;2022-12-18T02:29:15;29.70;;;13.23;;
9771;SDS011;4925;52.588;13.370;2022-12-18T02:31:53;28.63;;;12.73;;
9771;SDS011;4925;52.588;13.370;2022-12-18T02:34:22;28.40;;;12.27;;
9771;SDS011;4925;52.588;13.370;2022-12-18T02:36:51;29.40;;;12.10;;
9771;SDS011;4925;52.588;13.370;2022-12-18T02:39:19;28.10;;;12.40;;
9771;SDS011;4925;52.588;13.370;2022-12-18T02:41:46;25.70;;;13.10;;
9771;SDS011;4925;52.588;13.370;2022-12-18T02:44:13;30.27;;;12.87;;
9771;SDS011;4925;52.588;13.370;2022-12-18T02:46:40;24.70;;;11.00;;
9771;SDS011;4925;52.588;13.370;2022-12-18T02:51:59;25.13;;;11.27;;
9771;SDS011;4925;52.588;13.370;2022-12-18T02:57:55;27.90;;;12.17;;
9771;SDS011;4925;52.588;13.370;2022-12-18T03:03:14;32.07;;;12.97;;
9771;SDS011;4925;52.588;13.370;2022-12-18T03:08:33;35.40;;;13.80;;
9771;SDS011;4925;52.588;13.370;2022-12-18T03:11:04;36.13;;;14.47;;
9771;SDS011;4925;52.588;13.370;2022-12-18T03:13:33;32.07;;;13.23;;
9771;SDS011;4925;52.588;13.370;2022-12-18T03:16:28;32.03;;;13.57;;
9771;SDS011;4925;52.588;13.370;2022-12-18T03:18:57;36.63;;;15.37;;
9771;SDS011;4925;52.588;13.370;2022-12-18T03:21:30;32.93;;;14.17;;
9771;SDS011;4925;52.588;13.370;2022-12-18T03:24:01;32.93;;;13.73;;
9771;SDS011;4925;52.588;13.370;2022-12-18T03:26:32;41.00;;;17.07;;
9771;SDS011;4925;52.588;13.370;2022-12-18T03:29:02;33.90;;;14.37;;
9771;SDS011;4925;52.588;13.370;2022-12-18T03:31:34;37.50;;;14.90;;
9771;SDS011;4925;52.588;13.370;2022-12-18T03:34:05;40.43;;;14.07;;
9771;SDS011;4925;52.588;13.370;2022-12-18T03:36:36;41.83;;;15.00;;
9771;SDS011;4925;52.588;13.370;2022-12-18T03:39:02;34.93;;;14.07;;
9771;SDS011;4925;52.588;13.370;2022-12-18T03:47:06;42.60;;;17.90;;
9771;SDS011;4925;52.588;13.370;2022-12-18T03:49:46;36.10;;;13.27;;
9771;SDS011;4925;52.588;13.370;2022-12-18T03:54:53;50.70;;;18.23;;
9771;SDS011;4925;52.588;13.370;2022-12-18T03:57:22;51.00;;;18.87;;
9771;SDS011;4925;52.588;13.370;2022-12-18T03:59:54;49.87;;;17.47;;
9771;SDS011;4925;52.588;13.370;2022-12-18T04:02:24;50.53;;;17.30;;
9771;SDS011;4925;52.588;13.370;2022-12-18T04:04:51;31.10;;;11.87;;
9771;SDS011;4925;52.588;13.370;2022-12-18T04:07:20;52.37;;;19.17;;
9771;SDS011;4925;52.588;13.370;2022-12-18T04:09:47;51.83;;;20.13;;
9771;SDS011;4925;52.588;13.370;2022-12-18T04:12:15;58.03;;;21.77;;
9771;SDS011;4925;52.588;13.370;2022-12-18T04:14:40;61.07;;;21.83;;
9771;SDS011;4925;52.588;13.370;2022-12-18T04:17:06;62.03;;;22.40;;
9771;SDS011;4925;52.588;13.370;2022-12-18T04:19:32;47.87;;;19.90;;
9771;SDS011;4925;52.588;13.370;2022-12-18T04:21:57;58.07;;;21.63;;
9771;SDS011;4925;52.588;13.370;2022-12-18T04:24:23;50.00;;;19.87;;
9771;SDS011;4925;52.588;13.370;2022-12-18T04:26:49;54.07;;;19.80;;
9771;SDS011;4925;52.588;13.370;2022-12-18T04:29:14;44.63;;;18.50;;
9771;SDS011;4925;52.588;13.370;2022-12-18T04:31:40;37.57;;;14.10;;
9771;SDS011;4925;52.588;13.370;2022-12-18T04:34:06;50.87;;;19.67;;
9771;SDS011;4925;52.588;13.370;2022-12-18T04:36:31;49.83;;;19.37;;
9771;SDS011;4925;52.588;13.370;2022-12-18T04:38:57;43.53;;;17.47;;
9771;SDS011;4925;52.588;13.370;2022-12-18T04:41:23;40.40;;;16.77;;
9771;SDS011;4925;52.588;13.370;2022-12-18T04:43:48;41.60;;;16.07;;
9771;SDS011;4925;52.588;13.370;2022-12-18T04:46:14;40.57;;;17.43;;
9771;SDS011;4925;52.588;13.370;2022-12-18T04:48:40;46.40;;;16.53;;
9771;SDS011;4925;52.588;13.370;2022-12-18T04:51:06;50.60;;;18.37;;
9771;SDS011;4925;52.588;13.370;2022-12-18T04:53:32;48.00;;;18.70;;
9771;SDS011;4925;52.588;13.370;2022-12-18T04:56:02;42.73;;;17.10;;
9771;SDS011;4925;52.588;13.370;2022-12-18T04:58:29;37.53;;;17.07;;
9771;SDS011;4925;52.588;13.370;2022-12-18T05:00:55;37.57;;;16.60;;
9771;SDS011;4925;52.588;13.370;2022-12-18T05:03:21;40.70;;;17.17;;
9771;SDS011;4925;52.588;13.370;2022-12-18T05:05:49;42.50;;;16.77;;
9771;SDS011;4925;52.588;13.370;2022-12-18T05:08:16;42.57;;;15.60;;
9771;SDS011;4925;52.588;13.370;2022-12-18T05:10:42;38.93;;;15.77;;
9771;SDS011;4925;52.588;13.370;2022-12-18T05:13:08;47.37;;;18.13;;
9771;SDS011;4925;52.588;13.370;2022-12-18T05:15:33;44.13;;;17.00;;
9771;SDS011;4925;52.588;13.370;2022-12-18T05:17:59;36.30;;;15.77;;
9771;SDS011;4925;52.588;13.370;2022-12-18T05:20:26;33.50;;;15.07;;
9771;SDS011;4925;52.588;13.370;2022-12-18T05:22:52;32.07;;;14.87;;
9771;SDS011;4925;52.588;13.370;2022-12-18T05:25:19;40.67;;;15.80;;
9771;SDS011;4925;52.588;13.370;2022-12-18T05:27:45;35.70;;;15.00;;
9771;SDS011;4925;52.588;13.370;2022-12-18T05:30:12;34.57;;;15.03;;
9771;SDS011;4925;52.588;13.370;2022-12-18T05:32:38;34.43;;;14.57;;
9771;SDS011;4925;52.588;13.370;2022-12-18T05:35:05;41.73;;;15.80;;
9771;SDS011;4925;52.588;13.370;2022-12-18T05:37:32;33.67;;;14.40;;
9771;SDS011;4925;52.588;13.370;2022-12-18T05:39:58;42.83;;;16.77;;
9771;SDS011;4925;52.588;13.370;2022-12-18T05:42:24;34.20;;;13.70;;
9771;SDS011;4925;52.588;13.370;2022-12-18T05:44:49;39.43;;;15.77;;
9771;SDS011;4925;52.588;13.370;2022-12-18T05:47:15;38.67;;;16.07;;
9771;SDS011;4925;52.588;13.370;2022-12-18T05:49:41;35.67;;;14.73;;
9771;SDS011;4925;52.588;13.370;2022-12-18T05:52:07;30.83;;;13.50;;
9771;SDS011;4925;52.588;13.370;2022-12-18T05:54:33;36.67;;;14.87;;
9771;SDS011;4925;52.588;13.370;2022-12-18T05:56:59;35.40;;;14.27;;
9771;SDS011;4925;52.588;13.370;2022-12-18T05:59:25;33.67;;;13.73;;
9771;SDS011;4925;52.588;13.370;2022-12-18T06:01:51;34.83;;;13.83;;
9771;SDS011;4925;52.588;13.370;2022-12-18T06:04:16;37.53;;;15.37;;
9771;SDS011;4925;52.588;13.370;2022-12-18T06:06:42;34.27;;;14.77;;
9771;SDS011;4925;52.588;13.370;2022-12-18T06:09:08;35.50;;;14.53;;
9771;SDS011;4925;52.588;13.370;2022-12-18T06:11:35;34.07;;;15.80;;
9771;SDS011;4925;52.588;13.370;2022-12-18T06:14:02;35.93;;;15.07;;
9771;SDS011;4925;52.588;13.370;2022-12-18T06:16:29;33.00;;;12.03;;
9771;SDS011;4925;52.588;13.370;2022-12-18T06:18:56;31.30;;;13.83;;
9771;SDS011;4925;52.588;13.370;2022-12-18T06:21:25;31.97;;;14.03;;
9771;SDS011;4925;52.588;13.370;2022-12-18T06:23:51;30.10;;;12.30;;
9771;SDS011;4925;52.588;13.370;2022-12-18T06:26:17;27.03;;;12.47;;
9771;SDS011;4925;52.588;13.370;2022-12-18T06:28:43;36.73;;;14.57;;
9771;SDS011;4925;52.588;13.370;2022-12-18T06:31:09;35.00;;;14.03;;
9771;SDS011;4925;52.588;13.370;2022-12-18T06:33:34;28.90;;;12.20;;
9771;SDS011;4925;52.588;13.370;2022-12-18T06:36:05;41.60;;;17.97;;
9771;SDS011;4925;52.588;13.370;2022-12-18T06:38:33;34.60;;;13.63;;
9771;SDS011;4925;52.588;13.370;2022-12-18T06:41:00;44.37;;;15.97;;
9771;SDS011;4925;52.588;13.370;2022-12-18T06:43:26;33.53;;;13.27;;
9771;SDS011;4925;52.588;13.370;2022-12-18T06:45:57;36.87;;;16.10;;
9771;SDS011;4925;52.588;13.370;2022-12-18T06:48:24;41.17;;;16.67;;
9771;SDS011;4925;52.588;13.370;2022-12-18T06:50:50;36.67;;;14.93;;
9771;SDS011;4925;52.588;13.370;2022-12-18T06:53:15;39.60;;;15.00;;
9771;SDS011;4925;52.588;13.370;2022-12-18T06:55:41;43.47;;;15.43;;
9771;SDS011;4925;52.588;13.370;2022-12-18T06:58:07;33.57;;;15.87;;
9771;SDS011;4925;52.588;13.370;2022-12-18T07:00:33;39.43;;;15.20;;
9771;SDS011;4925;52.588;13.370;2022-12-18T07:02:58;33.73;;;14.37;;
9771;SDS011;4925;52.588;13.370;2022-12-18T07:05:24;35.57;;;14.43;;
9771;SDS011;4925;52.588;13.370;2022-12-18T07:07:49;37.30;;;14.10;;
9771;SDS011;4925;52.588;13.370;2022-12-18T07:10:15;30.47;;;13.17;;
9771;SDS011;4925;52.588;13.370;2022-12-18T07:12:41;33.80;;;14.27;;
9771;SDS011;4925;52.588;13.370;2022-12-18T07:15:07;33.20;;;12.73;;
9771;SDS011;4925;52.588;13.370;2022-12-18T07:17:32;37.23;;;15.17;;
9771;SDS011;4925;52.588;13.370;2022-12-18T07:19:58;41.10;;;16.60;;
9771;SDS011;4925;52.588;13.370;2022-12-18T07:22:27;37.60;;;15.33;;
9771;SDS011;4925;52.588;13.370;2022-12-18T07:24:52;40.73;;;16.33;;
9771;SDS011;4925;52.588;13.370;2022-12-18T07:27:18;41.43;;;16.60;;
9771;SDS011;4925;52.588;13.370;2022-12-18T07:29:44;44.23;;;16.63;;
9771;SDS011;4925;52.588;13.370;2022-12-18T07:32:10;35.70;;;14.47;;
9771;SDS011;4925;52.588;13.370;2022-12-18T07:34:35;38.37;;;15.67;;
9771;SDS011;4925;52.588;13.370;2022-12-18T07:37:01;38.10;;;16.97;;
9771;SDS011;4925;52.588;13.370;2022-12-18T07:39:27;40.30;;;16.83;;
9771;SDS011;4925;52.588;13.370;2022-12-18T07:41:52;37.93;;;15.37;;
9771;SDS011;4925;52.588;13.370;2022-12-18T07:44:37;41.30;;;15.53;;
9771;SDS011;4925;52.588;13.370;2022-12-18T07:47:03;43.37;;;17.83;;
9771;SDS011;4925;52.588;13.370;2022-12-18T07:49:28;39.87;;;16.87;;
9771;SDS011;4925;52.588;13.370;2022-12-18T07:51:55;43.00;;;16.40;;
9771;SDS011;4925;52.588;13.370;2022-12-18T07:54:21;28.40;;;10.77;;
9771;SDS011;4925;52.588;13.370;2022-12-18T07:56:48;44.67;;;17.70;;
9771;SDS011;4925;52.588;13.370;2022-12-18T07:59:13;35.50;;;14.23;;
9771;SDS011;4925;52.588;13.370;2022-12-18T08:01:39;30.93;;;12.03;;
9771;SDS011;4925;52.588;13.370;2022-12-18T08:04:05;29.63;;;13.77;;
9771;SDS011;4925;52.588;13.370;2022-12-18T08:06:30;37.97;;;13.93;;
9771;SDS011;4925;52.588;13.370;2022-12-18T08:08:56;35.97;;;14.73;;
9771;SDS011;4925;52.588;13.370;2022-12-18T08:11:23;38.80;;;14.23;;
9771;SDS011;4925;52.588;13.370;2022-12-18T08:13:50;36.40;;;14.10;;
9771;SDS011;4925;52.588;13.370;2022-12-18T08:16:16;40.97;;;15.37;;
9771;SDS011;4925;52.588;13.370;2022-12-18T08:18:42;34.50;;;15.30;;
9771;SDS011;4925;52.588;13.370;2022-12-18T08:21:15;33.83;;;15.13;;
9771;SDS011;4925;52.588;13.370;2022-12-18T08:23:43;31.73;;;14.37;;
9771;SDS011;4925;52.588;13.370;2022-12-18T08:26:13;40.03;;;16.10;;
9771;SDS011;4925;52.588;13.370;2022-12-18T08:28:39;41.80;;;16.63;;
9771;SDS011;4925;52.588;13.370;2022-12-18T08:31:05;33.67;;;14.03;;
9771;SDS011;4925;52.588;13.370;2022-12-18T08:33:32;39.17;;;16.73;;
9771;SDS011;4925;52.588;13.370;2022-12-18T08:35:58;40.73;;;16.87;;
9771;SDS011;4925;52.588;13.370;2022-12-18T08:38:25;41.33;;;15.97;;
9771;SDS011;4925;52.588;13.370;2022-12-18T08:40:58;45.70;;;17.80;;
9771;SDS011;4925;52.588;13.370;2022-12-18T08:43:30;43.37;;;18.17;;
9771;SDS011;4925;52.588;13.370;2022-12-18T08:46:15;50.00;;;17.50;;
9771;SDS011;4925;52.588;13.370;2022-12-18T08:48:41;41.40;;;17.57;;
9771;SDS011;4925;52.588;13.370;2022-12-18T08:51:07;38.03;;;14.07;;
9771;SDS011;4925;52.588;13.370;2022-12-18T08:53:34;32.93;;;15.40;;
9771;SDS011;4925;52.588;13.370;2022-12-18T08:56:01;33.47;;;14.10;;
9771;SDS011;4925;52.588;13.370;2022-12-18T08:58:27;37.53;;;16.03;;
9771;SDS011;4925;52.588;13.370;2022-12-18T09:00:52;29.37;;;13.23;;
9771;SDS011;4925;52.588;13.370;2022-12-18T09:03:18;35.73;;;14.20;;
9771;SDS011;4925;52.588;13.370;2022-12-18T09:05:47;30.20;;;14.83;;
9771;SDS011;4925;52.588;13.370;2022-12-18T09:08:13;36.37;;;14.80;;
9771;SDS011;4925;52.588;13.370;2022-12-18T09:10:43;29.17;;;11.73;;
9771;SDS011;4925;52.588;13.370;2022-12-18T09:13:13;39.60;;;17.23;;
9771;SDS011;4925;52.588;13.370;2022-12-18T09:15:51;37.03;;;16.57;;
9771;SDS011;4925;52.588;13.370;2022-12-18T09:18:18;35.80;;;16.27;;
9771;SDS011;4925;52.588;13.370;2022-12-18T09:20:46;32.57;;;14.87;;
9771;SDS011;4925;52.588;13.370;2022-12-18T09:23:11;30.87;;;14.87;;
9771;SDS011;4925;52.588;13.370;2022-12-18T09:25:38;32.37;;;14.93;;
9771;SDS011;4925;52.588;13.370;2022-12-18T09:28:05;36.37;;;14.80;;
9771;SDS011;4925;52.588;13.370;2022-12-18T09:30:37;32.40;;;14.20;;
9771;SDS011;4925;52.588;13.370;2022-12-18T09:33:03;34.53;;;15.13;;
9771;SDS011;4925;52.588;13.370;2022-12-18T09:35:29;35.13;;;15.13;;
9771;SDS011;4925;52.588;13.370;2022-12-18T09:37:55;33.07;;;14.70;;
9771;SDS011;4925;52.588;13.370;2022-12-18T09:40:22;29.87;;;14.23;;
9771;SDS011;4925;52.588;13.370;2022-12-18T09:42:52;34.53;;;14.73;;
9771;SDS011;4925;52.588;13.370;2022-12-18T09:45:22;35.83;;;14.83;;
9771;SDS011;4925;52.588;13.370;2022-12-18T09:47:49;39.27;;;15.47;;
9771;SDS011;4925;52.588;13.370;2022-12-18T09:52:58;31.63;;;14.40;;
9771;SDS011;4925;52.588;13.370;2022-12-18T09:55:36;34.33;;;16.10;;
9771;SDS011;4925;52.588;13.370;2022-12-18T09:58:06;32.60;;;12.27;;
9771;SDS011;4925;52.588;13.370;2022-12-18T10:00:38;27.70;;;12.60;;
9771;SDS011;4925;52.588;13.370;2022-12-18T10:03:12;31.87;;;14.63;;
9771;SDS011;4925;52.588;13.370;2022-12-18T10:08:17;35.07;;;14.37;;
9771;SDS011;4925;52.588;13.370;2022-12-18T10:10:48;33.50;;;13.57;;
9771;SDS011;4925;52.588;13.370;2022-12-18T10:19:16;35.80;;;14.93;;
9771;SDS011;4925;52.588;13.370;2022-12-18T10:24:24;32.80;;;14.10;;
9771;SDS011;4925;52.588;13.370;2022-12-18T10:27:24;33.60;;;13.27;;
9771;SDS011;4925;52.588;13.370;2022-12-18T10:29:50;31.80;;;13.87;;
9771;SDS011;4925;52.588;13.370;2022-12-18T10:32:17;29.57;;;13.97;;
9771;SDS011;4925;52.588;13.370;2022-12-18T10:34:46;38.03;;;16.57;;
9771;SDS011;4925;52.588;13.370;2022-12-18T10:37:17;34.53;;;14.67;;
9771;SDS011;4925;52.588;13.370;2022-12-18T10:42:39;30.07;;;13.80;;
9771;SDS011;4925;52.588;13.370;2022-12-18T10:45:16;28.87;;;14.30;;
9771;SDS011;4925;52.588;13.370;2022-12-18T10:47:45;36.77;;;14.07;;
9771;SDS011;4925;52.588;13.370;2022-12-18T10:50:32;37.10;;;16.47;;
9771;SDS011;4925;52.588;13.370;2022-12-18T10:53:00;28.80;;;13.50;;
9771;SDS011;4925;52.588;13.370;2022-12-18T10:55:39;34.17;;;12.57;;
9771;SDS011;4925;52.588;13.370;2022-12-18T11:03:34;33.17;;;14.40;;
9771;SDS011;4925;52.588;13.370;2022-12-18T11:06:14;34.80;;;15.43;;
9771;SDS011;4925;52.588;13.370;2022-12-18T11:08:43;36.43;;;15.43;;
9771;SDS011;4925;52.588;13.370;2022-12-18T11:11:22;28.80;;;13.03;;
9771;SDS011;4925;52.588;13.370;2022-12-18T11:14:12;34.13;;;14.90;;
9771;SDS011;4925;52.588;13.370;2022-12-18T11:16:44;39.07;;;15.73;;
9771;SDS011;4925;52.588;13.370;2022-12-18T11:19:28;33.43;;;16.07;;
9771;SDS011;4925;52.588;13.370;2022-12-18T11:21:58;35.57;;;16.87;;
9771;SDS011;4925;52.588;13.370;2022-12-18T11:24:34;39.63;;;13.80;;
9771;SDS011;4925;52.588;13.370;2022-12-18T11:27:04;41.93;;;16.03;;
9771;SDS011;4925;52.588;13.370;2022-12-18T11:29:32;32.83;;;14.70;;
9771;SDS011;4925;52.588;13.370;2022-12-18T11:34:41;32.23;;;14.27;;
9771;SDS011;4925;52.588;13.370;2022-12-18T11:37:09;30.87;;;12.40;;
9771;SDS011;4925;52.588;13.370;2022-12-18T11:39:40;34.07;;;14.87;;
9771;SDS011;4925;52.588;13.370;2022-12-18T11:50:38;37.70;;;15.70;;
9771;SDS011;4925;52.588;13.370;2022-12-18T11:53:20;27.40;;;12.33;;
9771;SDS011;4925;52.588;13.370;2022-12-18T12:01:15;32.20;;;13.60;;
9771;SDS011;4925;52.588;13.370;2022-12-18T12:14:19;29.63;;;13.57;;
9771;SDS011;4925;52.588;13.370;2022-12-18T12:17:05;33.57;;;14.53;;
9771;SDS011;4925;52.588;13.370;2022-12-18T12:24:59;29.10;;;12.23;;
9771;SDS011;4925;52.588;13.370;2022-12-18T12:33:04;28.73;;;13.70;;
9771;SDS011;4925;52.588;13.370;2022-12-18T12:35:38;26.83;;;13.30;;
9771;SDS011;4925;52.588;13.370;2022-12-18T12:38:42;26.40;;;12.40;;
9771;SDS011;4925;52.588;13.370;2022-12-18T12:41:17;27.13;;;12.30;;
9771;SDS011;4925;52.588;13.370;2022-12-18T12:44:06;23.67;;;12.83;;
9771;SDS011;4925;52.588;13.370;2022-12-18T12:46:35;26.27;;;12.60;;
9771;SDS011;4925;52.588;13.370;2022-12-18T12:49:08;31.03;;;13.40;;
9771;SDS011;4925;52.588;13.370;2022-12-18T12:52:35;29.27;;;12.27;;
9771;SDS011;4925;52.588;13.370;2022-12-18T12:54:39;30.73;;;14.03;;
9771;SDS011;4925;52.588;13.370;2022-12-18T12:57:10;25.13;;;12.23;;
9771;SDS011;4925;52.588;13.370;2022-12-18T12:59:47;25.37;;;11.70;;
9771;SDS011;4925;52.588;13.370;2022-12-18T13:02:33;26.80;;;11.37;;
9771;SDS011;4925;52.588;13.370;2022-12-18T13:05:14;22.97;;;11.50;;
9771;SDS011;4925;52.588;13.370;2022-12-18T13:10:36;26.33;;;11.10;;
9771;SDS011;4925;52.588;13.370;2022-12-18T13:13:15;46.37;;;21.00;;
9771;SDS011;4925;52.588;13.370;2022-12-18T13:18:22;28.77;;;13.03;;
9771;SDS011;4925;52.588;13.370;2022-12-18T13:21:34;27.27;;;11.83;;
9771;SDS011;4925;52.588;13.370;2022-12-18T13:23:55;30.20;;;13.73;;
9771;SDS011;4925;52.588;13.370;2022-12-18T13:32:10;24.67;;;11.87;;
9771;SDS011;4925;52.588;13.370;2022-12-18T13:34:23;29.93;;;14.60;;
9771;SDS011;4925;52.588;13.370;2022-12-18T13:36:50;23.73;;;11.87;;
9771;SDS011;4925;52.588;13.370;2022-12-18T13:41:43;24.77;;;12.73;;
9771;SDS011;4925;52.588;13.370;2022-12-18T13:46:59;22.20;;;8.80;;
9771;SDS011;4925;52.588;13.370;2022-12-18T13:52:22;23.37;;;13.93;;
9771;SDS011;4925;52.588;13.370;2022-12-18T13:55:01;30.37;;;12.90;;
9771;SDS011;4925;52.588;13.370;2022-12-18T13:57:31;25.90;;;11.70;;
9771;SDS011;4925;52.588;13.370;2022-12-18T14:02:46;21.87;;;10.77;;
9771;SDS011;4925;52.588;13.370;2022-12-18T14:08:11;24.63;;;11.97;;
9771;SDS011;4925;52.588;13.370;2022-12-18T14:10:40;24.30;;;10.13;;
9771;SDS011;4925;52.588;13.370;2022-12-18T14:13:07;24.97;;;12.57;;
9771;SDS011;4925;52.588;13.370;2022-12-18T14:15:41;25.63;;;12.37;;
9771;SDS011;4925;52.588;13.370;2022-12-18T14:20:51;43.93;;;21.23;;
9771;SDS011;4925;52.588;13.370;2022-12-18T14:23:26;28.60;;;13.97;;
9771;SDS011;4925;52.588;13.370;2022-12-18T14:25:55;28.57;;;14.20;;
9771;SDS011;4925;52.588;13.370;2022-12-18T14:28:21;28.33;;;12.77;;
9771;SDS011;4925;52.588;13.370;2022-12-18T14:30:47;38.80;;;16.50;;
9771;SDS011;4925;52.588;13.370;2022-12-18T14:33:15;29.70;;;12.67;;
9771;SDS011;4925;52.588;13.370;2022-12-18T14:35:59;27.00;;;13.60;;
9771;SDS011;4925;52.588;13.370;2022-12-18T14:38:31;27.27;;;13.17;;
9771;SDS011;4925;52.588;13.370;2022-12-18T14:41:00;26.57;;;13.10;;
9771;SDS011;4925;52.588;13.370;2022-12-18T14:43:41;27.40;;;14.50;;
9771;SDS011;4925;52.588;13.370;2022-12-18T14:46:30;24.27;;;11.40;;
9771;SDS011;4925;52.588;13.370;2022-12-18T14:48:57;25.20;;;14.10;;
9771;SDS011;4925;52.588;13.370;2022-12-18T14:51:26;30.23;;;12.93;;
9771;SDS011;4925;52.588;13.370;2022-12-18T14:53:57;27.07;;;13.67;;
9771;SDS011;4925;52.588;13.370;2022-12-18T14:56:35;21.03;;;10.63;;
9771;SDS011;4925;52.588;13.370;2022-12-18T14:59:18;21.87;;;12.43;;
9771;SDS011;4925;52.588;13.370;2022-12-18T15:04:36;21.50;;;10.87;;
9771;SDS011;4925;52.588;13.370;2022-12-18T15:07:09;18.33;;;10.57;;
9771;SDS011;4925;52.588;13.370;2022-12-18T15:10:30;21.77;;;10.50;;
9771;SDS011;4925;52.588;13.370;2022-12-18T15:18:02;25.90;;;13.00;;
9771;SDS011;4925;52.588;13.370;2022-12-18T15:26:00;15.97;;;9.10;;
9771;SDS011;4925;52.588;13.370;2022-12-18T15:28:38;18.70;;;10.67;;
9771;SDS011;4925;52.588;13.370;2022-12-18T15:36:10;17.77;;;9.27;;
9771;SDS011;4925;52.588;13.370;2022-12-18T15:38:40;15.63;;;7.00;;
9771;SDS011;4925;52.588;13.370;2022-12-18T15:41:11;19.83;;;11.10;;
9771;SDS011;4925;52.588;13.370;2022-12-18T15:43:39;21.30;;;10.07;;
9771;SDS011;4925;52.588;13.370;2022-12-18T15:48:43;22.40;;;11.50;;
9771;SDS011;4925;52.588;13.370;2022-12-18T15:51:56;23.10;;;13.07;;
9771;SDS011;4925;52.588;13.370;2022-12-18T15:53:58;23.37;;;12.27;;
9771;SDS011;4925;52.588;13.370;2022-12-18T15:56:25;25.67;;;12.53;;
9771;SDS011;4925;52.588;13.370;2022-12-18T15:59:13;21.27;;;11.07;;
9771;SDS011;4925;52.588;13.370;2022-12-18T16:01:41;24.73;;;13.37;;
9771;SDS011;4925;52.588;13.370;2022-12-18T16:04:12;17.30;;;10.73;;
9771;SDS011;4925;52.588;13.370;2022-12-18T16:06:40;24.33;;;12.20;;
9771;SDS011;4925;52.588;13.370;2022-12-18T16:09:06;15.43;;;9.13;;
9771;SDS011;4925;52.588;13.370;2022-12-18T16:11:33;16.13;;;8.27;;
9771;SDS011;4925;52.588;13.370;2022-12-18T16:14:04;18.93;;;9.73;;
9771;SDS011;4925;52.588;13.370;2022-12-18T16:16:53;18.07;;;9.47;;
9771;SDS011;4925;52.588;13.370;2022-12-18T16:19:23;14.77;;;8.43;;
9771;SDS011;4925;52.588;13.370;2022-12-18T16:21:50;20.40;;;10.63;;
9771;SDS011;4925;52.588;13.370;2022-12-18T16:24:18;15.20;;;8.60;;
9771;SDS011;4925;52.588;13.370;2022-12-18T16:26:46;23.10;;;11.17;;
9771;SDS011;4925;52.588;13.370;2022-12-18T16:29:13;20.57;;;10.87;;
9771;SDS011;4925;52.588;13.370;2022-12-18T16:31:38;16.30;;;8.77;;
9771;SDS011;4925;52.588;13.370;2022-12-18T16:37:12;22.97;;;11.47;;
9771;SDS011;4925;52.588;13.370;2022-12-18T16:39:39;20.90;;;11.20;;
9771;SDS011;4925;52.588;13.370;2022-12-18T16:42:08;14.07;;;7.17;;
9771;SDS011;4925;52.588;13.370;2022-12-18T16:44:41;25.13;;;12.83;;
9771;SDS011;4925;52.588;13.370;2022-12-18T16:47:08;20.87;;;10.60;;
9771;SDS011;4925;52.588;13.370;2022-12-18T16:49:33;25.80;;;12.60;;
9771;SDS011;4925;52.588;13.370;2022-12-18T16:52:00;21.80;;;11.97;;
9771;SDS011;4925;52.588;13.370;2022-12-18T16:54:27;20.53;;;10.17;;
9771;SDS011;4925;52.588;13.370;2022-12-18T16:56:55;25.73;;;14.17;;
9771;SDS011;4925;52.588;13.370;2022-12-18T16:59:21;21.50;;;11.10;;
9771;SDS011;4925;52.588;13.370;2022-12-18T17:01:48;25.27;;;12.50;;
9771;SDS011;4925;52.588;13.370;2022-12-18T17:04:14;19.13;;;10.50;;
9771;SDS011;4925;52.588;13.370;2022-12-18T17:06:42;21.60;;;9.37;;
9771;SDS011;4925;52.588;13.370;2022-12-18T17:09:12;22.33;;;12.83;;
9771;SDS011;4925;52.588;13.370;2022-12-18T17:11:40;22.97;;;12.30;;
9771;SDS011;4925;52.588;13.370;2022-12-18T17:14:07;19.97;;;11.60;;